Time;durP1;ratioP1;P1;durP2;ratioP2;P2;SDS_P1;SDS_P2;PMS_P1;PMS_P2;Temp;Humidity;BMP_temperature;BMP_pressure;BME280_temperature;BME280_humidity;BME280_pressure;Samples;Min_cycle;Max_cycle;Signal;HPM_P1;HPM_P2
2022/04/17 00:01:31;;;;;;;12.48;7.93;;;24.10;99.90;;;;;;5012263;28;20112;-55
2022/04/17 00:03:57;;;;;;;10.75;8.13;;;24.10;99.90;;;;;;5011360;28;20116;-56
2022/04/17 00:06:22;;;;;;;10.93;7.75;;;24.10;99.90;;;;;;5012564;28;20026;-55
2022/04/17 00:08:49;;;;;;;12.60;8.82;;;24.10;99.90;;;;;;5011999;28;20025;-56
2022/04/17 00:11:15;;;;;;;13.25;8.85;;;24.10;99.90;;;;;;5011094;28;20089;-55
2022/04/17 00:13:44;;;;;;;10.43;7.95;;;24.00;99.90;;;;;;5012899;28;20102;-56
2022/04/17 00:16:10;;;;;;;10.60;8.20;;;24.00;99.90;;;;;;5012360;28;20036;-55
2022/04/17 00:18:37;;;;;;;11.52;8.00;;;24.00;99.90;;;;;;5012269;28;20029;-55
2022/04/17 00:21:04;;;;;;;10.93;7.82;;;24.00;99.90;;;;;;5012384;28;20072;-55
2022/04/17 00:23:30;;;;;;;13.32;7.80;;;24.00;99.90;;;;;;5012321;28;20018;-56
2022/04/17 00:25:56;;;;;;;10.52;7.45;;;24.00;99.90;;;;;;5010777;28;20111;-56
2022/04/17 00:28:21;;;;;;;10.73;8.13;;;24.00;99.90;;;;;;5012041;28;20073;-55
2022/04/17 00:30:48;;;;;;;12.13;8.98;;;24.00;99.90;;;;;;5011972;28;20046;-54
2022/04/17 00:33:14;;;;;;;12.82;8.73;;;24.00;99.90;;;;;;5012333;28;20041;-56
2022/04/17 00:35:41;;;;;;;13.48;8.02;;;24.00;99.90;;;;;;5010861;28;20481;-54
2022/04/17 00:38:07;;;;;;;15.60;8.10;;;24.00;99.90;;;;;;5011920;28;20044;-55
2022/04/17 00:40:33;;;;;;;10.40;8.32;;;24.00;99.90;;;;;;5010661;28;20033;-56
2022/04/17 00:42:59;;;;;;;10.75;7.80;;;24.00;99.90;;;;;;5012177;28;20054;-55
2022/04/17 00:45:26;;;;;;;12.27;7.82;;;24.00;99.90;;;;;;5011910;28;20462;-55
2022/04/17 00:47:51;;;;;;;14.48;9.18;;;24.00;99.90;;;;;;5011916;28;20105;-55
2022/04/17 00:50:18;;;;;;;12.73;8.77;;;24.00;99.90;;;;;;5011873;28;20125;-55
2022/04/17 00:52:45;;;;;;;13.00;9.13;;;23.90;99.90;;;;;;5011704;28;20021;-55
2022/04/17 00:55:15;;;;;;;12.60;9.38;;;24.00;99.90;;;;;;5011711;28;20117;-55
2022/04/17 00:57:41;;;;;;;14.57;9.93;;;24.00;99.90;;;;;;5011569;28;20485;-55
2022/04/17 01:00:08;;;;;;;14.02;10.68;;;23.90;99.90;;;;;;5031971;23;20053;-64
2022/04/17 01:02:34;;;;;;;15.93;11.48;;;24.00;99.90;;;;;;5031293;28;20090;-60
2022/04/17 01:05:00;;;;;;;15.32;11.80;;;23.90;99.90;;;;;;5030031;28;20127;-60
2022/04/17 01:07:26;;;;;;;16.10;12.07;;;23.90;99.90;;;;;;5031357;28;20049;-61
2022/04/17 01:09:51;;;;;;;18.10;13.30;;;23.90;99.90;;;;;;5031273;28;20025;-61
2022/04/17 01:12:17;;;;;;;17.27;12.88;;;23.90;99.90;;;;;;5031363;28;20500;-61
2022/04/17 01:14:44;;;;;;;17.20;14.07;;;23.90;99.90;;;;;;5031430;28;20018;-58
2022/04/17 01:17:11;;;;;;;19.45;14.13;;;23.90;99.90;;;;;;5031299;28;20167;-61
2022/04/17 01:19:39;;;;;;;19.25;14.00;;;23.90;99.90;;;;;;5030313;28;20026;-62
2022/04/17 01:22:10;;;;;;;20.38;15.35;;;23.90;99.90;;;;;;5031186;28;20217;-61
2022/04/17 01:27:23;;;;;;;22.90;15.30;;;23.90;99.90;;;;;;5031670;28;20083;-59
2022/04/17 01:29:51;;;;;;;27.65;19.85;;;23.90;99.90;;;;;;5031036;28;20034;-60
2022/04/17 01:32:17;;;;;;;20.58;16.52;;;23.90;99.90;;;;;;5031335;28;20112;-59
2022/04/17 01:34:43;;;;;;;21.08;16.77;;;23.90;99.90;;;;;;5031131;28;20037;-60
2022/04/17 01:37:10;;;;;;;43.03;33.20;;;23.80;99.90;;;;;;5031151;28;20025;-59
2022/04/17 01:39:36;;;;;;;24.48;18.40;;;23.80;99.90;;;;;;5029848;28;20151;-60
2022/04/17 01:42:02;;;;;;;22.15;17.42;;;23.80;99.90;;;;;;5031162;28;20029;-59
2022/04/17 01:44:28;;;;;;;26.08;18.70;;;23.90;99.90;;;;;;5031100;28;20040;-60
2022/04/17 01:46:56;;;;;;;26.98;20.90;;;23.80;99.90;;;;;;5030973;28;20032;-60
2022/04/17 01:49:23;;;;;;;27.92;22.67;;;23.90;99.90;;;;;;5031292;28;20397;-62
2022/04/17 01:51:51;;;;;;;24.95;18.35;;;23.90;99.90;;;;;;5030889;28;20475;-59
2022/04/17 01:54:25;;;;;;;26.92;20.35;;;23.80;99.90;;;;;;5030995;28;20021;-60
2022/04/17 01:56:51;;;;;;;25.75;19.67;;;23.80;99.90;;;;;;5031071;28;20021;-60
2022/04/17 01:59:19;;;;;;;26.55;20.08;;;23.80;99.90;;;;;;5031476;28;20105;-61
2022/04/17 02:01:45;;;;;;;25.33;20.75;;;23.80;99.90;;;;;;5030870;28;20034;-60
2022/04/17 02:04:11;;;;;;;25.90;20.95;;;23.80;99.90;;;;;;5030856;28;20084;-59
2022/04/17 02:06:40;;;;;;;25.75;20.92;;;23.80;99.90;;;;;;5030762;28;20393;-58
2022/04/17 02:09:08;;;;;;;26.88;20.80;;;23.80;99.90;;;;;;5031005;28;20028;-60
2022/04/17 02:11:34;;;;;;;28.73;21.98;;;23.80;99.90;;;;;;5030922;28;20675;-59
2022/04/17 02:14:00;;;;;;;28.20;22.50;;;23.80;99.90;;;;;;5030857;28;20029;-61
2022/04/17 02:16:26;;;;;;;30.30;23.85;;;23.80;99.90;;;;;;5030787;28;20033;-61
2022/04/17 02:18:52;;;;;;;30.40;22.83;;;23.80;99.90;;;;;;5030545;28;20049;-62
2022/04/17 02:21:19;;;;;;;26.42;22.90;;;23.80;99.90;;;;;;5030668;28;20068;-61
2022/04/17 02:23:46;;;;;;;27.75;22.38;;;23.80;99.90;;;;;;5030870;28;20520;-61
2022/04/17 02:26:16;;;;;;;27.20;22.70;;;23.80;99.90;;;;;;5030713;28;20080;-61
2022/04/17 02:28:42;;;;;;;25.77;21.35;;;23.80;99.90;;;;;;5030594;28;20033;-62
2022/04/17 02:31:09;;;;;;;30.13;22.75;;;23.80;99.90;;;;;;5031420;28;20107;-61
2022/04/17 02:33:36;;;;;;;42.28;31.27;;;23.80;99.90;;;;;;5034497;28;20017;-62
2022/04/17 02:36:02;;;;;;;59.42;44.38;;;23.80;99.90;;;;;;5034057;28;20536;-64
2022/04/17 02:38:28;;;;;;;42.10;32.35;;;23.80;99.90;;;;;;5034104;28;20532;-61
2022/04/17 02:40:54;;;;;;;64.53;46.00;;;23.80;99.90;;;;;;5033934;28;20033;-59
2022/04/17 02:43:21;;;;;;;31.92;25.60;;;23.80;99.90;;;;;;5033948;28;20021;-61
2022/04/17 02:45:47;;;;;;;35.00;28.25;;;23.70;99.90;;;;;;5034006;28;20025;-60
2022/04/17 02:48:13;;;;;;;37.22;28.98;;;23.70;99.90;;;;;;5033841;28;20374;-60
2022/04/17 02:50:40;;;;;;;33.58;26.50;;;23.70;99.90;;;;;;5033928;28;20044;-60
2022/04/17 02:53:07;;;;;;;34.95;25.70;;;23.70;99.90;;;;;;5034020;28;20026;-58
2022/04/17 02:55:33;;;;;;;38.05;29.65;;;23.70;99.90;;;;;;5033832;28;20029;-60
2022/04/17 02:57:59;;;;;;;38.63;30.30;;;23.70;99.90;;;;;;5033651;28;20103;-60
2022/04/17 03:00:26;;;;;;;40.10;31.92;;;23.70;99.90;;;;;;5034097;28;20133;-60
2022/04/17 03:05:37;;;;;;;35.97;28.20;;;23.70;99.90;;;;;;5034037;28;20056;-61
2022/04/17 03:08:12;;;;;;;40.28;31.88;;;23.70;99.90;;;;;;5033414;28;20485;-65
2022/04/17 03:10:43;;;;;;;46.53;35.33;;;23.70;99.90;;;;;;5033555;28;20033;-62
2022/04/17 03:13:10;;;;;;;37.63;29.38;;;23.70;99.90;;;;;;5032189;28;20385;-62
2022/04/17 03:15:37;;;;;;;38.50;28.77;;;23.70;99.90;;;;;;5031465;28;20037;-60
2022/04/17 03:18:04;;;;;;;;;;;23.70;99.90;;;;;;5028150;28;20029;-59
2022/04/17 03:20:30;;;;;;;46.67;31.25;;;23.70;99.90;;;;;;5013592;28;19913;-61
2022/04/17 03:22:56;;;;;;;45.88;31.42;;;23.80;99.90;;;;;;5013381;28;20445;-59
2022/04/17 03:25:23;;;;;;;45.13;31.65;;;23.80;99.90;;;;;;5011967;28;20026;-64
2022/04/17 03:27:49;;;;;;;53.83;35.92;;;23.80;99.90;;;;;;5029853;28;20426;-61
2022/04/17 03:30:16;;;;;;;51.10;35.97;;;23.80;99.90;;;;;;5023050;28;20034;-61
2022/04/17 03:32:47;;;;;;;50.85;33.42;;;23.80;99.90;;;;;;5018588;28;20041;-61
2022/04/17 03:35:14;;;;;;;47.85;33.33;;;23.80;99.90;;;;;;5018120;28;20037;-59
2022/04/17 03:37:44;;;;;;;57.40;39.40;;;23.80;99.90;;;;;;5017458;28;20022;-61
2022/04/17 03:40:12;;;;;;;48.83;35.15;;;23.80;99.90;;;;;;5012094;28;20026;-59
2022/04/17 03:42:38;;;;;;;56.58;36.03;;;23.80;99.90;;;;;;5031996;28;20057;-59
2022/04/17 03:45:06;;;;;;;51.33;33.90;;;23.80;99.90;;;;;;5032846;28;20029;-58
2022/04/17 03:47:32;;;;;;;;;;;23.80;99.90;;;;;;5033210;28;20031;-58
2022/04/17 03:49:59;;;;;;;54.85;33.92;;;23.80;99.90;;;;;;5030468;28;20603;-58
2022/04/17 03:52:25;;;;;;;50.33;33.53;;;23.80;99.90;;;;;;5029719;28;20034;-58
2022/04/17 03:54:50;;;;;;;46.78;31.17;;;23.80;99.90;;;;;;5028661;28;20176;-57
2022/04/17 03:57:16;;;;;;;38.75;27.42;;;23.70;99.90;;;;;;5029290;28;20026;-58
2022/04/17 03:59:42;;;;;;;43.33;33.00;;;23.80;99.90;;;;;;5032715;28;20041;-57
2022/04/17 04:02:09;;;;;;;47.70;30.38;;;23.70;99.90;;;;;;5031590;28;20092;-57
2022/04/17 04:04:35;;;;;;;42.05;29.50;;;23.80;99.90;;;;;;5029618;28;20033;-57
2022/04/17 04:07:01;;;;;;;47.28;29.77;;;23.80;99.90;;;;;;5013330;28;20026;-58
2022/04/17 04:09:27;;;;;;;41.63;28.50;;;23.70;99.90;;;;;;5027788;28;20028;-58
2022/04/17 04:11:53;;;;;;;38.25;26.30;;;23.80;99.90;;;;;;5026109;28;20531;-57
2022/04/17 04:14:19;;;;;;;41.53;29.90;;;23.70;99.90;;;;;;5032247;28;20075;-59
2022/04/17 04:16:44;;;;;;;39.50;28.10;;;23.70;99.90;;;;;;5032198;28;20105;-57
2022/04/17 04:19:11;;;;;;;38.65;27.60;;;23.70;99.90;;;;;;5032438;28;20366;-58
2022/04/17 04:21:47;;;;;;;39.83;28.75;;;23.70;99.90;;;;;;5020998;28;20466;-58
2022/04/17 04:24:18;;;;;;;37.13;27.35;;;23.70;99.90;;;;;;5012466;28;20386;-58
2022/04/17 04:26:44;;;;;;;38.97;28.00;;;23.70;99.90;;;;;;5012442;28;20021;-58
2022/04/17 04:29:10;;;;;;;38.67;26.98;;;23.70;99.90;;;;;;5012329;28;20075;-57
2022/04/17 04:31:36;;;;;;;37.00;27.50;;;23.70;99.90;;;;;;5022636;28;20034;-57
2022/04/17 04:34:03;;;;;;;39.35;28.33;;;23.70;99.90;;;;;;5031753;28;20160;-58
2022/04/17 04:36:28;;;;;;;41.17;27.00;;;23.70;99.90;;;;;;5031819;28;20055;-57
2022/04/17 04:38:54;;;;;;;38.65;26.73;;;23.70;99.90;;;;;;5029440;28;20108;-59
2022/04/17 04:41:20;;;;;;;33.50;25.33;;;23.70;99.90;;;;;;5012156;28;20057;-59
2022/04/17 04:43:46;;;;;;;36.15;26.55;;;23.70;99.90;;;;;;5011014;28;20109;-58
2022/04/17 04:46:12;;;;;;;34.83;25.85;;;23.70;99.90;;;;;;5012150;28;20105;-58
2022/04/17 04:51:25;;;;;;;37.78;24.58;;;23.70;99.90;;;;;;5011921;28;20551;-60
2022/04/17 04:53:52;;;;;;;34.40;23.67;;;23.70;99.90;;;;;;5011633;28;20018;-60
2022/04/17 04:56:19;;;;;;;34.20;24.85;;;23.70;99.90;;;;;;5011843;28;20053;-60
2022/04/17 04:58:46;;;;;;;34.83;24.38;;;23.70;99.90;;;;;;5012390;28;20049;-59
2022/04/17 05:01:13;;;;;;;28.13;23.00;;;23.70;99.90;;;;;;5011746;28;20048;-61
2022/04/17 05:03:39;;;;;;;33.65;24.63;;;23.70;99.90;;;;;;5011705;28;20057;-60
2022/04/17 05:06:06;;;;;;;37.55;26.15;;;23.70;99.90;;;;;;5011736;28;20390;-63
2022/04/17 05:08:32;;;;;;;30.77;23.23;;;23.70;99.90;;;;;;5011780;28;20344;-60
2022/04/17 05:10:58;;;;;;;32.20;23.38;;;23.60;99.90;;;;;;5029665;28;20116;-60
2022/04/17 05:13:23;;;;;;;32.90;23.83;;;23.70;99.90;;;;;;5031337;28;20084;-60
2022/04/17 05:15:49;;;;;;;32.88;23.27;;;23.70;99.90;;;;;;5031199;28;20611;-59
2022/04/17 05:18:15;;;;;;;32.05;22.88;;;23.70;99.90;;;;;;5031641;28;20350;-60
2022/04/17 05:20:41;;;;;;;33.85;24.70;;;23.70;99.90;;;;;;5030489;28;20029;-60
2022/04/17 05:26:05;;;;;;;31.70;23.15;;;23.60;99.90;;;;;;5022196;28;20069;-60
2022/04/17 05:28:31;;;;;;;28.98;21.88;;;23.60;99.90;;;;;;5031350;28;20440;-60
2022/04/17 05:31:00;;;;;;;32.40;21.17;;;23.70;99.90;;;;;;5022078;28;20065;-60
2022/04/17 05:33:26;;;;;;;31.80;22.48;;;23.70;99.90;;;;;;5031084;28;20520;-60
2022/04/17 05:35:53;;;;;;;29.70;22.55;;;23.60;99.90;;;;;;5030974;28;20061;-59
2022/04/17 05:38:20;;;;;;;31.73;21.13;;;23.60;99.90;;;;;;5031291;28;20081;-60
2022/04/17 05:40:49;;;;;;;33.22;21.42;;;23.60;99.90;;;;;;5013790;28;20037;-59
2022/04/17 05:43:16;;;;;;;27.27;21.42;;;23.60;99.90;;;;;;5011444;28;20026;-60
2022/04/17 05:45:42;;;;;;;34.17;23.23;;;23.60;99.90;;;;;;5011338;28;20026;-59
2022/04/17 05:48:11;;;;;;;34.05;22.45;;;23.60;99.90;;;;;;5019178;28;20020;-59
2022/04/17 05:50:38;;;;;;;28.42;21.85;;;23.60;99.90;;;;;;5030911;28;20041;-60
2022/04/17 05:53:05;;;;;;;35.13;23.50;;;23.60;99.90;;;;;;5030974;28;20064;-60
2022/04/17 05:55:31;;;;;;;28.25;20.95;;;23.70;99.90;;;;;;5030976;28;20836;-61
2022/04/17 05:57:57;;;;;;;33.88;23.17;;;23.60;99.90;;;;;;5024306;28;20029;-60
2022/04/17 06:00:23;;;;;;;31.80;21.85;;;23.60;99.90;;;;;;5011025;28;20057;-60
2022/04/17 06:02:49;;;;;;;28.60;20.55;;;23.60;99.90;;;;;;5011165;28;20552;-59
2022/04/17 06:05:17;;;;;;;33.20;22.48;;;23.60;99.90;;;;;;5011655;28;20030;-58
2022/04/17 06:07:43;;;;;;;29.58;20.50;;;23.60;99.90;;;;;;5018426;28;20125;-58
2022/04/17 06:10:11;;;;;;;27.48;20.65;;;23.60;99.90;;;;;;5014791;28;20030;-59
2022/04/17 06:12:38;;;;;;;27.65;18.65;;;23.60;99.90;;;;;;5013560;28;20482;-58
2022/04/17 06:15:05;;;;;;;26.95;19.55;;;23.60;99.90;;;;;;5014854;28;20030;-62
2022/04/17 06:17:42;;;;;;;26.67;18.17;;;23.60;99.90;;;;;;5015785;28;20026;-60
2022/04/17 06:20:14;;;;;;;28.02;19.33;;;23.60;99.90;;;;;;5034406;28;20038;-60
2022/04/17 06:22:41;;;;;;;25.42;18.67;;;23.60;99.90;;;;;;5034226;28;20112;-61
2022/04/17 06:25:09;;;;;;;29.60;19.95;;;23.60;99.90;;;;;;5034442;28;20057;-60
2022/04/17 06:27:43;;;;;;;25.73;18.38;;;23.60;99.90;;;;;;5032442;28;20025;-60
2022/04/17 06:30:14;;;;;;;23.08;18.23;;;23.60;99.90;;;;;;5014364;28;20030;-61
2022/04/17 06:32:40;;;;;;;27.88;18.45;;;23.60;99.90;;;;;;5014323;28;20034;-60
2022/04/17 06:35:08;;;;;;;27.10;17.88;;;23.70;99.90;;;;;;5014488;28;20097;-60
2022/04/17 06:38:01;;;;;;;25.65;18.40;;;23.60;99.90;;;;;;5014120;28;20026;-60
2022/04/17 06:40:32;;;;;;;25.73;18.60;;;23.60;99.90;;;;;;5033022;28;20323;-60
2022/04/17 06:43:01;;;;;;;27.98;18.63;;;23.60;99.90;;;;;;5033839;28;20029;-60
2022/04/17 06:45:28;;;;;;;24.52;17.65;;;23.60;99.90;;;;;;5033932;28;20026;-60
2022/04/17 06:47:55;;;;;;;25.13;18.45;;;23.60;99.90;;;;;;5030061;28;20056;-59
2022/04/17 06:50:22;;;;;;;25.63;17.40;;;23.60;99.90;;;;;;5014311;28;20338;-59
2022/04/17 06:52:49;;;;;;;24.58;17.75;;;23.60;99.90;;;;;;5014317;28;20359;-58
2022/04/17 06:55:15;;;;;;;28.17;16.88;;;23.60;99.90;;;;;;5013822;28;20022;-58
2022/04/17 06:57:46;;;;;;;23.63;17.40;;;23.60;99.90;;;;;;5029138;28;20116;-58
2022/04/17 07:00:12;;;;;;;25.77;18.05;;;23.60;99.90;;;;;;5033475;28;20049;-58
2022/04/17 07:02:40;;;;;;;24.30;18.27;;;23.60;99.90;;;;;;5032020;28;20024;-58
2022/04/17 07:05:06;;;;;;;21.05;16.25;;;23.70;99.90;;;;;;5013812;28;20029;-58
2022/04/17 07:07:32;;;;;;;24.77;16.67;;;23.70;99.90;;;;;;5012277;28;20088;-58
2022/04/17 07:09:59;;;;;;;20.20;16.83;;;23.70;99.90;;;;;;5012411;28;20112;-58
2022/04/17 07:12:24;;;;;;;21.08;16.25;;;23.70;99.90;;;;;;5013519;28;20564;-58
2022/04/17 07:14:50;;;;;;;24.00;16.33;;;23.60;99.90;;;;;;5014068;28;20109;-58
2022/04/17 07:17:16;;;;;;;24.50;17.17;;;23.70;99.90;;;;;;5013329;28;20506;-59
2022/04/17 07:19:42;;;;;;;20.52;17.02;;;23.70;99.90;;;;;;5012156;28;20033;-59
2022/04/17 07:22:08;;;;;;;22.35;16.63;;;23.70;99.90;;;;;;5013268;28;20033;-59
2022/04/17 07:24:34;;;;;;;24.02;18.15;;;23.70;99.90;;;;;;5029464;28;20029;-59
2022/04/17 07:27:01;;;;;;;21.02;15.95;;;23.70;99.90;;;;;;5032500;28;20068;-59
2022/04/17 07:29:27;;;;;;;20.88;15.85;;;23.70;99.90;;;;;;5032513;28;20041;-60
2022/04/17 07:31:53;;;;;;;22.65;15.82;;;23.70;99.90;;;;;;5033356;28;20397;-60
2022/04/17 07:34:22;;;;;;;21.05;15.85;;;23.70;99.90;;;;;;5032387;28;20029;-60
2022/04/17 07:36:52;;;;;;;22.55;16.27;;;23.70;99.90;;;;;;5031614;28;20397;-60
2022/04/17 07:39:19;;;;;;;20.30;15.05;;;23.70;99.90;;;;;;5032706;28;20380;-61
2022/04/17 07:41:48;;;;;;;23.52;15.77;;;23.70;99.90;;;;;;5032876;28;20032;-61
2022/04/17 07:44:14;;;;;;;21.85;15.63;;;23.70;99.90;;;;;;5030853;28;20307;-61
2022/04/17 07:46:41;;;;;;;19.55;14.68;;;23.70;99.90;;;;;;5031167;28;20485;-62
2022/04/17 07:49:08;;;;;;;20.33;14.80;;;23.70;99.90;;;;;;5032784;28;20517;-61
2022/04/17 07:51:34;;;;;;;19.63;14.75;;;23.70;99.90;;;;;;5031382;28;20037;-60
2022/04/17 07:54:00;;;;;;;18.25;13.63;;;23.70;99.90;;;;;;5032256;28;20025;-60
2022/04/17 07:56:25;;;;;;;18.75;15.18;;;23.70;99.90;;;;;;5032575;28;20036;-61
2022/04/17 07:58:51;;;;;;;18.23;12.98;;;23.70;99.90;;;;;;5032410;28;20093;-61
2022/04/17 08:01:17;;;;;;;19.15;13.73;;;23.80;99.90;;;;;;5028304;28;20493;-61
2022/04/17 08:06:10;;;;;;;15.85;12.02;;;23.80;99.90;;;;;;5012061;28;20092;-59
2022/04/17 08:08:37;;;;;;;18.50;13.57;;;23.80;99.90;;;;;;5011202;28;20017;-60
2022/04/17 08:11:04;;;;;;;14.90;11.75;;;23.80;99.90;;;;;;5012021;28;20315;-60
2022/04/17 08:13:30;;;;;;;19.55;12.85;;;23.80;99.90;;;;;;5031299;28;20029;-60
2022/04/17 08:15:56;;;;;;;17.63;12.35;;;23.80;99.90;;;;;;5032389;28;20117;-61
2022/04/17 08:18:22;;;;;;;15.55;11.40;;;23.80;99.90;;;;;;5032336;28;20109;-60
2022/04/17 08:20:48;;;;;;;16.52;12.75;;;23.80;99.90;;;;;;5032136;28;20116;-60
2022/04/17 08:23:14;;;;;;;19.35;13.13;;;23.80;99.90;;;;;;5030632;28;20409;-60
2022/04/17 08:25:40;;;;;;;23.13;13.82;;;23.80;99.90;;;;;;5031977;28;20444;-60
2022/04/17 08:28:06;;;;;;;15.75;11.70;;;23.80;99.90;;;;;;5031278;28;20025;-62
2022/04/17 08:30:33;;;;;;;18.00;12.48;;;23.80;99.90;;;;;;5031704;28;20080;-61
2022/04/17 08:33:04;;;;;;;17.42;12.07;;;23.90;99.90;;;;;;5014793;28;20021;-61
2022/04/17 08:35:31;;;;;;;17.05;11.27;;;23.80;99.90;;;;;;5012021;28;20046;-60
2022/04/17 08:38:03;;;;;;;18.88;11.80;;;23.80;99.90;;;;;;5012210;28;20381;-60
2022/04/17 08:40:29;;;;;;;16.85;11.25;;;23.80;99.90;;;;;;5030392;28;20373;-62
2022/04/17 08:42:56;;;;;;;13.98;10.18;;;23.80;99.90;;;;;;5015701;28;20045;-61
2022/04/17 08:45:23;;;;;;;17.95;10.30;;;23.80;99.90;;;;;;5012114;28;20172;-61
2022/04/17 08:47:51;;;;;;;13.80;10.50;;;23.80;99.90;;;;;;5012105;28;20104;-60
2022/04/17 08:50:18;;;;;;;19.70;11.10;;;23.80;99.90;;;;;;5019265;28;20045;-60
2022/04/17 08:52:47;;;;;;;17.23;11.32;;;23.90;99.90;;;;;;5031244;28;20127;-60
2022/04/17 08:55:14;;;;;;;17.02;11.57;;;23.90;99.90;;;;;;5031572;28;20033;-60
2022/04/17 08:57:40;;;;;;;16.45;10.38;;;23.90;99.90;;;;;;5031371;28;20033;-59
2022/04/17 09:00:10;;;;;;;14.45;10.02;;;23.90;99.90;;;;;;5031154;28;20049;-60
2022/04/17 09:02:36;;;;;;;16.95;11.70;;;23.90;99.90;;;;;;5031117;28;20033;-60
2022/04/17 09:05:07;;;;;;;15.48;10.68;;;23.90;99.90;;;;;;5031399;28;20026;-60
2022/04/17 09:07:40;;;;;;;19.92;10.93;;;23.90;99.90;;;;;;5031335;28;20025;-60
2022/04/17 09:10:07;;;;;;;12.82;10.23;;;23.90;99.90;;;;;;5026067;28;20447;-59
2022/04/17 09:12:33;;;;;;;16.13;11.02;;;23.90;99.90;;;;;;5011528;28;20030;-57
2022/04/17 09:14:59;;;;;;;17.08;9.93;;;24.00;99.90;;;;;;5011727;28;20028;-60
2022/04/17 09:17:32;;;;;;;14.52;10.90;;;24.00;99.90;;;;;;5011634;28;20030;-60
2022/04/17 09:19:58;;;;;;;15.18;11.25;;;24.00;99.90;;;;;;5017337;28;20036;-58
2022/04/17 09:22:23;;;;;;;15.10;10.68;;;24.00;99.90;;;;;;5030824;28;20029;-59
2022/04/17 09:24:49;;;;;;;18.80;13.27;;;24.00;99.90;;;;;;5031167;28;20105;-59
2022/04/17 09:27:15;;;;;;;23.42;16.23;;;24.00;99.90;;;;;;5030970;28;20021;-59
2022/04/17 09:29:41;;;;;;;28.00;21.67;;;24.00;99.90;;;;;;5029996;28;20041;-59
2022/04/17 09:32:07;;;;;;;22.65;17.20;;;24.00;99.90;;;;;;5011346;28;20030;-60
2022/04/17 09:34:55;;;;;;;23.08;15.70;;;24.00;99.90;;;;;;5011274;28;20030;-60
2022/04/17 09:37:27;;;;;;;20.92;16.95;;;24.00;99.90;;;;;;5009861;28;20064;-59
2022/04/17 09:40:04;;;;;;;24.30;16.58;;;24.00;99.90;;;;;;5013260;28;20022;-60
2022/04/17 09:42:30;;;;;;;23.75;17.17;;;24.00;99.90;;;;;;5035259;28;20489;-60
2022/04/17 09:44:57;;;;;;;21.10;15.23;;;24.10;99.90;;;;;;5035197;28;20109;-61
2022/04/17 09:47:27;;;;;;;21.30;16.20;;;24.10;99.90;;;;;;5034883;28;20033;-59
2022/04/17 09:49:56;;;;;;;23.60;15.63;;;24.10;99.90;;;;;;5032417;28;20025;-59
2022/04/17 09:52:52;;;;;;;21.38;15.85;;;24.10;99.90;;;;;;5015116;28;20253;-60
2022/04/17 09:55:27;;;;;;;19.65;14.63;;;24.20;99.90;;;;;;5009958;28;20037;-65
2022/04/17 09:57:57;;;;;;;20.00;14.75;;;24.20;99.90;;;;;;5013617;28;20512;-61
2022/04/17 10:00:23;;;;;;;19.08;14.45;;;24.20;99.90;;;;;;5034066;28;20555;-59
2022/04/17 10:02:49;;;;;;;20.33;15.25;;;24.20;99.90;;;;;;5033447;28;20028;-58
2022/04/17 10:05:18;;;;;;;22.55;14.43;;;24.30;99.90;;;;;;5034459;28;20025;-60
2022/04/17 10:07:46;;;;;;;20.58;15.38;;;24.30;99.90;;;;;;5023351;28;20026;-60
2022/04/17 10:10:14;;;;;;;21.10;15.27;;;24.30;99.90;;;;;;5015363;28;20030;-59
2022/04/17 10:12:41;;;;;;;20.67;15.52;;;24.40;99.90;;;;;;5015871;28;20037;-60
2022/04/17 10:15:07;;;;;;;21.23;15.32;;;24.40;99.90;;;;;;5030373;28;20048;-59
2022/04/17 10:17:42;;;;;;;20.70;14.73;;;24.50;99.90;;;;;;5034493;28;20079;-60
2022/04/17 10:20:13;;;;;;;20.80;14.82;;;24.50;99.90;;;;;;5033261;28;20346;-60
2022/04/17 10:22:43;;;;;;;22.33;15.63;;;24.50;99.90;;;;;;5013407;28;20034;-60
2022/04/17 10:25:10;;;;;;;21.50;15.15;;;24.50;99.90;;;;;;5014610;28;20084;-59
2022/04/17 10:27:36;;;;;;;19.20;14.48;;;24.50;99.90;;;;;;5014368;28;20030;-61
2022/04/17 10:30:12;;;;;;;21.88;14.93;;;24.60;99.90;;;;;;5014380;28;20026;-60
2022/04/17 10:32:53;;;;;;;20.83;14.75;;;24.60;99.90;;;;;;5033050;28;20044;-59
2022/04/17 10:35:41;;;;;;;17.90;14.80;;;24.70;99.90;;;;;;5033714;28;20088;-60
2022/04/17 10:38:26;;;;;;;18.45;14.05;;;24.70;99.90;;;;;;5033907;28;20520;-61
2022/04/17 10:41:09;;;;;;;17.65;14.45;;;24.70;99.90;;;;;;5029283;28;20029;-60
2022/04/17 10:43:47;;;;;;;22.67;14.35;;;24.70;99.90;;;;;;5013799;28;20164;-60
2022/04/17 10:46:17;;;;;;;18.05;14.07;;;24.70;99.90;;;;;;5013961;28;20033;-60
2022/04/17 10:48:57;;;;;;;17.70;13.95;;;24.80;99.90;;;;;;5014011;28;20081;-60
2022/04/17 10:51:32;;;;;;;18.33;14.05;;;24.80;99.90;;;;;;5021601;28;20037;-61
2022/04/17 10:54:06;;;;;;;18.23;13.98;;;24.80;99.90;;;;;;5032208;28;20377;-60
2022/04/17 10:56:38;;;;;;;18.85;14.98;;;24.80;99.90;;;;;;5033854;28;20033;-61
2022/04/17 10:59:17;;;;;;;19.45;14.32;;;24.90;99.90;;;;;;5032176;28;20025;-62
2022/04/17 11:01:43;;;;;;;20.33;13.52;;;24.90;99.90;;;;;;5033650;28;20038;-61
2022/04/17 11:04:26;;;;;;;19.60;14.52;;;25.00;99.90;;;;;;5033497;28;20469;-61
2022/04/17 11:07:04;;;;;;;17.35;13.18;;;25.00;99.90;;;;;;5033480;28;20400;-59
2022/04/17 11:09:36;;;;;;;16.42;13.00;;;25.00;99.90;;;;;;5033318;28;20022;-59
2022/04/17 11:12:10;;;;;;;17.58;13.40;;;25.00;99.90;;;;;;5033543;28;20497;-59
2022/04/17 11:14:39;;;;;;;19.60;13.80;;;25.00;99.90;;;;;;5033372;28;20117;-59
2022/04/17 11:17:09;;;;;;;16.52;12.95;;;25.10;99.90;;;;;;5023521;28;20030;-60
2022/04/17 11:19:39;;;;;;;17.73;13.55;;;25.10;99.90;;;;;;5012436;28;20026;-60
2022/04/17 11:22:08;;;;;;;17.38;12.85;;;25.10;99.90;;;;;;5013636;28;20026;-59
2022/04/17 11:24:55;;;;;;;20.75;14.18;;;25.20;99.90;;;;;;5013662;28;20477;-58
2022/04/17 11:27:45;;;;;;;17.90;13.23;;;25.20;99.90;;;;;;5024979;28;20437;-60
2022/04/17 11:30:16;;;;;;;19.83;12.98;;;25.20;99.90;;;;;;5032911;28;20486;-60
2022/04/17 11:32:42;;;;;;;17.17;12.35;;;25.20;99.90;;;;;;5032918;28;20083;-60
2022/04/17 11:35:10;;;;;;;16.88;12.43;;;25.30;99.90;;;;;;5032858;28;20303;-59
2022/04/17 11:37:36;;;;;;;22.70;13.60;;;25.30;99.90;;;;;;5019001;28;20036;-60
2022/04/17 11:40:13;;;;;;;15.38;11.65;;;25.30;99.90;;;;;;5013320;28;20037;-59
2022/04/17 11:42:44;;;;;;;18.83;12.75;;;25.30;99.90;;;;;;5013091;28;20018;-59
2022/04/17 11:45:15;;;;;;;16.77;11.68;;;25.30;99.90;;;;;;5013097;28;20049;-60
2022/04/17 11:47:43;;;;;;;17.40;11.85;;;25.30;99.90;;;;;;5025591;28;20018;-59
2022/04/17 11:50:11;;;;;;;18.48;12.18;;;25.30;99.90;;;;;;5025030;28;20072;-60
2022/04/17 11:52:38;;;;;;;15.40;11.15;;;25.40;99.90;;;;;;5021718;28;20091;-60
2022/04/17 11:55:07;;;;;;;14.18;10.90;;;25.40;99.90;;;;;;5022033;28;20449;-60
2022/04/17 11:57:35;;;;;;;21.15;11.60;;;25.40;99.90;;;;;;5023611;28;20052;-59
2022/04/17 12:00:00;;;;;;;14.23;10.82;;;25.40;99.90;;;;;;5030072;28;20045;-59
2022/04/17 12:02:28;;;;;;;15.70;11.15;;;25.40;99.90;;;;;;5029897;28;20046;-61
2022/04/17 12:04:56;;;;;;;19.08;10.43;;;25.40;99.90;;;;;;5023497;28;20060;-62
2022/04/17 12:07:26;;;;;;;13.60;9.23;;;25.50;99.90;;;;;;5025089;28;20034;-58
2022/04/17 12:10:14;;;;;;;13.52;9.15;;;25.50;99.90;;;;;;5028946;28;20030;-62
2022/04/17 12:12:44;;;;;;;15.60;9.20;;;25.50;99.90;;;;;;5028804;28;20044;-61
2022/04/17 12:15:12;;;;;;;11.77;8.88;;;25.50;99.90;;;;;;5026181;28;20025;-59
2022/04/17 12:17:39;;;;;;;10.23;7.82;;;25.50;99.90;;;;;;5031867;28;20033;-61
2022/04/17 12:20:09;;;;;;;10.73;8.27;;;25.60;99.90;;;;;;5026009;28;20390;-59
2022/04/17 12:22:36;;;;;;;10.80;7.15;;;25.60;99.90;;;;;;5030443;28;20151;-62
2022/04/17 12:25:04;;;;;;;17.20;5.90;;;25.60;99.90;;;;;;5014594;28;20018;-61
2022/04/17 12:27:30;;;;;;;8.63;4.07;;;25.70;99.90;;;;;;5012279;28;20109;-64
2022/04/17 12:29:57;;;;;;;9.25;3.90;;;25.80;99.90;;;;;;5012712;28;20033;-62
2022/04/17 12:32:29;;;;;;;6.25;3.88;;;25.90;99.90;;;;;;5011413;28;20083;-62
2022/04/17 12:35:03;;;;;;;12.65;4.30;;;25.90;99.90;;;;;;5012868;28;20425;-62
2022/04/17 12:37:31;;;;;;;7.65;4.53;;;26.00;99.90;;;;;;5015892;28;20034;-62
2022/04/17 12:40:13;;;;;;;6.95;5.03;;;26.00;99.90;;;;;;5015073;28;20600;-62
2022/04/17 12:42:42;;;;;;;11.23;4.07;;;26.10;99.90;;;;;;5012940;28;20025;-62
2022/04/17 12:45:09;;;;;;;11.82;4.05;;;26.10;99.90;;;;;;5016604;28;20481;-65
2022/04/17 12:47:36;;;;;;;11.77;4.40;;;26.10;99.90;;;;;;5026120;28;20096;-62